createdAt,value
2022-09-20T00:01:13.721Z,2.23
2022-09-20T00:03:42.743Z,2.00
2022-09-20T00:06:14.348Z,2.70
2022-09-20T00:08:41.525Z,1.87
2022-09-20T00:11:11.795Z,1.93
2022-09-20T00:13:39.692Z,1.90
2022-09-20T00:16:08.896Z,1.90
2022-09-20T00:18:35.852Z,1.60
2022-09-20T00:21:03.306Z,1.90
2022-09-20T00:23:32.320Z,2.40
2022-09-20T00:26:02.517Z,1.80
2022-09-20T00:28:29.744Z,2.13
2022-09-20T00:31:07.100Z,2.53
2022-09-20T00:34:12.872Z,2.20
2022-09-20T00:36:39.437Z,1.87
2022-09-20T00:39:06.230Z,2.13
2022-09-20T00:41:33.480Z,2.23
2022-09-20T00:44:00.583Z,2.63
2022-09-20T00:46:36.326Z,2.00
2022-09-20T00:49:12.252Z,2.10
2022-09-20T00:51:41.500Z,2.60
2022-09-20T00:54:14.795Z,1.73
2022-09-20T00:56:44.078Z,2.27
2022-09-20T00:59:22.876Z,1.97
2022-09-20T01:01:53.247Z,2.30
2022-09-20T01:04:22.877Z,2.43
2022-09-20T01:06:53.072Z,2.10
2022-09-20T01:09:19.622Z,2.10
2022-09-20T01:11:46.514Z,2.23
2022-09-20T01:14:14.972Z,2.17
2022-09-20T01:16:47.744Z,2.00
2022-09-20T01:19:28.681Z,2.20
2022-09-20T01:21:55.399Z,2.40
2022-09-20T01:24:42.177Z,2.10
2022-09-20T01:27:11.816Z,2.00
2022-09-20T01:29:47.582Z,2.40
2022-09-20T01:32:17.007Z,2.20
2022-09-20T01:34:48.380Z,2.47
2022-09-20T01:37:18.347Z,2.60
2022-09-20T01:40:10.688Z,2.30
2022-09-20T01:42:48.113Z,2.73
2022-09-20T01:45:28.419Z,2.30
2022-09-20T01:48:01.174Z,2.27
2022-09-20T01:50:45.451Z,2.17
2022-09-20T01:53:33.958Z,1.80
2022-09-20T01:56:27.891Z,2.23
2022-09-20T01:59:23.048Z,2.23
2022-09-20T02:01:54.411Z,2.70
2022-09-20T02:04:33.386Z,2.37
2022-09-20T02:07:39.021Z,2.60
2022-09-20T02:10:42.901Z,2.10
2022-09-20T02:13:11.861Z,2.20
2022-09-20T02:15:57.410Z,2.17
2022-09-20T02:18:36.167Z,2.47
2022-09-20T02:21:53.496Z,2.57
2022-09-20T02:24:39.385Z,1.93
2022-09-20T02:27:35.867Z,2.47
2022-09-20T02:30:29.053Z,2.90
2022-09-20T02:33:13.781Z,2.63
2022-09-20T02:35:53.059Z,2.27
2022-09-20T02:38:28.617Z,2.23
2022-09-20T02:41:01.902Z,2.57
2022-09-20T02:43:36.791Z,2.53
2022-09-20T02:46:17.735Z,2.70
2022-09-20T02:49:28.697Z,2.67
2022-09-20T02:52:04.876Z,2.23
2022-09-20T02:54:56.457Z,3.00
2022-09-20T02:57:41.878Z,2.27
2022-09-20T03:00:11.443Z,2.30
2022-09-20T03:03:02.657Z,2.20
2022-09-20T03:05:58.224Z,2.50
2022-09-20T03:08:52.632Z,2.23
2022-09-20T03:11:22.425Z,2.20
2022-09-20T03:13:48.996Z,2.30
2022-09-20T03:16:27.795Z,2.20
2022-09-20T03:19:27.175Z,2.20
2022-09-20T03:22:06.082Z,3.00
2022-09-20T03:24:44.060Z,1.97
2022-09-20T03:27:16.795Z,2.23
2022-09-20T03:29:49.547Z,2.17
2022-09-20T03:32:22.011Z,2.50
2022-09-20T03:34:59.553Z,1.90
2022-09-20T03:37:52.015Z,2.10
2022-09-20T03:40:47.007Z,2.60
2022-09-20T03:43:33.790Z,2.23
2022-09-20T03:46:22.527Z,2.50
2022-09-20T03:49:04.449Z,2.47
2022-09-20T03:52:02.007Z,2.80
2022-09-20T03:54:55.162Z,2.47
2022-09-20T03:57:40.182Z,2.63
2022-09-20T04:00:30.336Z,2.70
2022-09-20T04:03:20.878Z,2.50
2022-09-20T04:05:56.526Z,2.23
2022-09-20T04:08:40.286Z,2.40
2022-09-20T04:11:17.661Z,2.20
2022-09-20T04:13:51.101Z,2.10
2022-09-20T04:16:30.066Z,2.57
2022-09-20T04:18:58.221Z,2.30
2022-09-20T04:21:45.614Z,2.37
2022-09-20T04:24:22.102Z,2.17
2022-09-20T04:26:52.506Z,2.40
2022-09-20T04:29:37.819Z,2.50
2022-09-20T04:32:16.050Z,2.70
2022-09-20T04:35:18.495Z,2.97
2022-09-20T04:37:45.416Z,2.67
2022-09-20T04:40:18.036Z,2.57
2022-09-20T04:43:03.135Z,2.40
2022-09-20T04:46:03.846Z,2.50
2022-09-20T04:48:51.703Z,2.20
2022-09-20T04:51:33.445Z,2.47
2022-09-20T04:54:25.419Z,2.40
2022-09-20T04:57:21.920Z,2.93
2022-09-20T05:00:09.307Z,2.67
2022-09-20T05:02:54.218Z,2.40
2022-09-20T05:05:49.218Z,2.17
2022-09-20T05:08:18.721Z,2.23
2022-09-20T05:11:09.703Z,2.20
2022-09-20T05:14:02.415Z,2.33
2022-09-20T05:17:00.733Z,2.37
2022-09-20T05:20:04.541Z,2.27
2022-09-20T05:23:05.623Z,2.30
2022-09-20T05:25:52.071Z,2.90
2022-09-20T05:28:49.649Z,3.07
2022-09-20T05:31:30.836Z,2.13
2022-09-20T05:34:10.171Z,2.60
2022-09-20T05:36:41.838Z,2.40
2022-09-20T05:39:20.487Z,2.53
2022-09-20T05:42:02.748Z,2.50
2022-09-20T05:44:45.249Z,2.70
2022-09-20T05:47:36.855Z,2.80
2022-09-20T05:50:16.628Z,2.60
2022-09-20T05:52:57.850Z,2.27
2022-09-20T05:55:51.811Z,2.80
2022-09-20T05:58:27.323Z,2.53
2022-09-20T06:01:07.497Z,2.30
2022-09-20T06:03:39.735Z,2.43
2022-09-20T06:06:15.038Z,3.00
2022-09-20T06:08:50.951Z,2.27
2022-09-20T06:11:23.573Z,3.07
2022-09-20T06:13:53.514Z,2.20
2022-09-20T06:16:34.421Z,2.50
2022-09-20T06:19:15.163Z,2.23
2022-09-20T06:21:56.086Z,2.20
2022-09-20T06:24:28.541Z,2.10
2022-09-20T06:27:03.088Z,2.50
2022-09-20T06:29:33.305Z,2.37
2022-09-20T06:32:02.529Z,2.43
2022-09-20T06:34:31.193Z,2.07
2022-09-20T06:37:48.854Z,2.70
2022-09-20T06:40:59.421Z,2.20
2022-09-20T06:43:27.802Z,2.10
2022-09-20T06:45:54.423Z,2.77
2022-09-20T06:48:21.034Z,2.30
2022-09-20T06:50:47.629Z,2.00
2022-09-20T06:53:30.158Z,2.23
2022-09-20T06:55:57.606Z,2.50
2022-09-20T06:58:28.719Z,2.20
2022-09-20T07:00:55.440Z,2.10
2022-09-20T07:03:22.035Z,2.40
2022-09-20T07:05:48.645Z,2.70
2022-09-20T07:08:16.574Z,2.40
2022-09-20T07:10:49.523Z,2.10
2022-09-20T07:13:16.140Z,1.90
2022-09-20T07:15:42.897Z,2.30
2022-09-20T07:18:09.544Z,2.37
2022-09-20T07:20:44.698Z,1.73
2022-09-20T07:23:11.298Z,1.50
2022-09-20T07:25:37.956Z,1.80
2022-09-20T07:28:04.576Z,1.83
2022-09-20T07:30:39.134Z,2.20
2022-09-20T07:33:05.715Z,2.33
2022-09-20T07:35:32.254Z,2.13
2022-09-20T07:38:05.035Z,2.13
2022-09-20T07:40:32.090Z,2.17
2022-09-20T07:42:58.695Z,2.40
2022-09-20T07:45:25.740Z,1.87
2022-09-20T07:47:54.594Z,2.33
2022-09-20T07:50:22.718Z,1.80
2022-09-20T07:52:56.264Z,1.70
2022-09-20T07:55:22.819Z,2.47
2022-09-20T07:57:59.274Z,1.80
2022-09-20T08:00:26.599Z,1.87
2022-09-20T08:02:59.184Z,1.70
2022-09-20T08:05:26.284Z,1.80
2022-09-20T08:07:52.983Z,2.33
2022-09-20T08:10:21.282Z,1.60
2022-09-20T08:15:42.113Z,2.50
2022-09-20T08:18:10.038Z,1.50
2022-09-20T08:20:40.067Z,2.90
2022-09-20T08:23:23.442Z,2.13
2022-09-20T08:25:53.354Z,1.97
2022-09-20T08:28:19.957Z,2.57
2022-09-20T08:30:46.561Z,2.60
2022-09-20T08:33:13.169Z,2.20
2022-09-20T08:35:39.731Z,2.30
2022-09-20T08:41:01.737Z,1.93
2022-09-20T08:43:36.868Z,2.07
2022-09-20T08:46:07.776Z,2.27
2022-09-20T08:48:36.762Z,2.60
2022-09-20T08:51:13.579Z,1.77
2022-09-20T08:53:49.108Z,2.60
2022-09-20T08:56:17.068Z,2.13
2022-09-20T08:58:47.662Z,2.50
2022-09-20T09:01:19.873Z,1.93
2022-09-20T09:03:47.484Z,2.30
2022-09-20T09:06:19.845Z,2.30
2022-09-20T09:08:56.091Z,2.10
2022-09-20T09:11:23.486Z,2.23
2022-09-20T09:14:30.148Z,2.53
2022-09-20T09:16:56.974Z,2.63
2022-09-20T09:19:34.326Z,2.20
2022-09-20T09:22:03.796Z,2.00
2022-09-20T09:24:33.303Z,2.60
2022-09-20T09:27:26.457Z,2.30
2022-09-20T09:29:55.103Z,2.60
2022-09-20T09:32:21.918Z,3.30
2022-09-20T09:34:48.513Z,3.60
2022-09-20T09:37:31.032Z,3.10
2022-09-20T09:40:16.903Z,2.87
2022-09-20T09:43:01.423Z,2.40
2022-09-20T09:45:38.594Z,2.20
2022-09-20T09:48:33.660Z,2.50
2022-09-20T09:51:12.452Z,2.70
2022-09-20T09:53:39.472Z,2.40
2022-09-20T09:56:24.333Z,2.73
2022-09-20T09:58:54.868Z,2.73
2022-09-20T10:01:44.087Z,2.60
2022-09-20T10:04:38.757Z,2.10
2022-09-20T10:07:10.157Z,2.40
2022-09-20T10:09:47.043Z,2.27
2022-09-20T10:12:38.717Z,2.00
2022-09-20T10:15:28.817Z,2.20
2022-09-20T10:18:17.269Z,2.30
2022-09-20T10:20:55.820Z,1.60
2022-09-20T10:24:01.445Z,2.10
2022-09-20T10:26:40.261Z,2.10
2022-09-20T10:29:15.593Z,1.97
2022-09-20T10:32:06.421Z,1.90
2022-09-20T10:34:47.493Z,2.10
2022-09-20T10:37:27.479Z,1.60
2022-09-20T10:40:26.051Z,1.57
2022-09-20T10:43:16.226Z,1.70
2022-09-20T10:48:51.877Z,1.70
2022-09-20T10:51:27.671Z,1.87
2022-09-20T10:54:01.079Z,1.77
2022-09-20T10:56:37.278Z,1.70
2022-09-20T10:59:22.488Z,1.47
2022-09-20T11:02:08.262Z,1.37
2022-09-20T11:04:53.527Z,1.87
2022-09-20T11:07:48.503Z,1.57
2022-09-20T11:10:24.264Z,1.53
2022-09-20T11:13:12.967Z,1.70
2022-09-20T11:15:49.711Z,1.80
2022-09-20T11:18:25.664Z,1.43
2022-09-20T11:21:19.253Z,1.40
2022-09-20T11:23:56.762Z,1.23
2022-09-20T11:26:27.959Z,1.30
2022-09-20T11:29:26.916Z,1.30
2022-09-20T11:31:56.293Z,1.20
2022-09-20T11:34:22.844Z,1.10
2022-09-20T11:36:54.552Z,0.90
2022-09-20T11:39:44.031Z,0.90
2022-09-20T11:42:22.464Z,1.30
2022-09-20T11:44:49.897Z,1.10
2022-09-20T11:47:42.847Z,1.20
2022-09-20T11:50:40.211Z,1.00
2022-09-20T11:53:22.173Z,1.30
2022-09-20T11:55:49.722Z,1.13
2022-09-20T11:58:17.021Z,1.40
2022-09-20T12:00:45.287Z,2.73
2022-09-20T12:03:30.170Z,1.37
2022-09-20T12:06:21.978Z,1.63
2022-09-20T12:08:52.833Z,1.10
2022-09-20T12:11:49.071Z,1.20
2022-09-20T12:14:29.239Z,1.10
2022-09-20T12:16:56.866Z,1.20
2022-09-20T12:19:33.253Z,1.70
2022-09-20T12:21:59.758Z,1.20
2022-09-20T12:24:31.016Z,1.50
2022-09-20T12:27:29.262Z,1.10
2022-09-20T12:30:20.057Z,1.10
2022-09-20T12:32:58.102Z,1.80
2022-09-20T12:35:37.073Z,1.40
2022-09-20T12:38:22.086Z,1.70
2022-09-20T12:41:27.616Z,1.57
2022-09-20T12:44:23.097Z,1.13
2022-09-20T12:46:57.327Z,1.20
2022-09-20T12:49:50.787Z,1.30
2022-09-20T12:52:46.117Z,1.20
2022-09-20T12:55:45.718Z,1.00
2022-09-20T12:58:14.246Z,1.30
2022-09-20T13:00:57.727Z,1.37
2022-09-20T13:03:35.274Z,1.30
2022-09-20T13:06:09.588Z,1.20
2022-09-20T13:08:58.102Z,1.13
2022-09-20T13:11:30.314Z,1.40
2022-09-20T13:14:06.136Z,1.60
2022-09-20T13:17:01.120Z,1.27
2022-09-20T13:19:40.837Z,1.27
2022-09-20T13:22:14.245Z,1.67
2022-09-20T13:24:42.734Z,1.23
2022-09-20T13:27:32.100Z,1.20
2022-09-20T13:30:20.063Z,1.40
2022-09-20T13:32:47.609Z,1.40
2022-09-20T13:35:24.062Z,1.40
2022-09-20T13:37:59.176Z,1.43
2022-09-20T13:40:37.076Z,1.57
2022-09-20T13:43:23.139Z,1.33
2022-09-20T13:45:56.278Z,1.70
2022-09-20T13:48:27.463Z,1.27
2022-09-20T13:50:54.994Z,1.33
2022-09-20T13:53:40.497Z,1.50
2022-09-20T13:56:17.955Z,1.73
2022-09-20T13:58:44.656Z,1.50
2022-09-20T14:01:37.616Z,1.37
2022-09-20T14:04:13.443Z,1.00
2022-09-20T14:06:40.440Z,1.10
2022-09-20T14:09:11.377Z,1.10
2022-09-20T14:11:39.206Z,1.10
2022-09-20T14:14:07.142Z,1.40
2022-09-20T14:16:41.111Z,1.43
2022-09-20T14:19:10.456Z,1.60
2022-09-20T14:21:37.454Z,1.70
2022-09-20T14:24:16.482Z,1.67
2022-09-20T14:26:45.999Z,1.40
2022-09-20T14:29:34.487Z,1.40
2022-09-20T14:32:16.733Z,1.50
2022-09-20T14:34:55.937Z,1.70
2022-09-20T14:37:25.813Z,1.60
2022-09-20T14:39:58.885Z,1.53
2022-09-20T14:42:43.021Z,1.50
2022-09-20T14:45:35.400Z,1.43
2022-09-20T14:48:11.634Z,1.80
2022-09-20T14:50:39.625Z,1.43
2022-09-20T14:53:12.367Z,1.40
2022-09-20T14:55:59.900Z,1.60
2022-09-20T14:58:26.607Z,2.00
2022-09-20T15:01:01.324Z,1.20
2022-09-20T15:03:39.067Z,1.90
2022-09-20T15:06:07.058Z,1.60
2022-09-20T15:08:37.112Z,1.40
2022-09-20T15:11:04.267Z,1.50
2022-09-20T15:13:30.959Z,1.40
2022-09-20T15:15:58.288Z,1.30
2022-09-20T15:18:26.690Z,1.43
2022-09-20T15:20:54.730Z,1.40
2022-09-20T15:23:21.864Z,1.50
2022-09-20T15:25:52.776Z,1.20
2022-09-20T15:28:19.806Z,1.40
2022-09-20T15:30:52.527Z,1.67
2022-09-20T15:33:20.457Z,1.80
2022-09-20T15:35:47.902Z,1.80
2022-09-20T15:38:17.072Z,2.33
2022-09-20T15:40:48.149Z,2.00
2022-09-20T15:43:22.335Z,1.77
2022-09-20T15:45:51.586Z,2.03
2022-09-20T15:48:22.162Z,1.80
2022-09-20T15:51:00.450Z,1.77
2022-09-20T15:53:27.369Z,1.80
2022-09-20T15:55:53.979Z,1.60
2022-09-20T15:58:21.610Z,2.23
2022-09-20T16:00:49.556Z,1.90
2022-09-20T16:03:17.454Z,2.50
2022-09-20T16:05:46.584Z,1.77
2022-09-20T16:08:13.117Z,2.07
2022-09-20T16:10:39.945Z,2.20
2022-09-20T16:13:06.554Z,1.80
2022-09-20T16:15:33.290Z,2.63
2022-09-20T16:18:18.487Z,1.97
2022-09-20T16:20:45.268Z,2.00
2022-09-20T16:23:13.843Z,2.60
2022-09-20T16:25:40.431Z,2.17
2022-09-20T16:28:07.005Z,1.80
2022-09-20T16:30:34.382Z,2.23
2022-09-20T16:33:07.794Z,1.90
2022-09-20T16:35:34.359Z,1.70
2022-09-20T16:38:00.945Z,2.00
2022-09-20T16:40:27.596Z,1.90
2022-09-20T16:42:56.073Z,2.43
2022-09-20T16:45:26.868Z,3.40
2022-09-20T16:47:57.291Z,4.60
2022-09-20T16:50:23.928Z,5.37
2022-09-20T16:52:50.558Z,4.50
2022-09-20T16:55:19.578Z,4.30
2022-09-20T16:57:51.984Z,4.50
2022-09-20T17:00:21.856Z,4.03
2022-09-20T17:02:51.186Z,5.10
2022-09-20T17:05:17.770Z,4.13
2022-09-20T17:07:44.622Z,3.90
2022-09-20T17:10:11.301Z,3.47
2022-09-20T17:12:43.566Z,3.70
2022-09-20T17:15:13.033Z,3.40
2022-09-20T17:17:39.979Z,3.20
2022-09-20T17:20:07.782Z,3.67
2022-09-20T17:22:34.503Z,4.37
2022-09-20T17:25:04.083Z,3.90
2022-09-20T17:27:31.844Z,2.77
2022-09-20T17:29:58.466Z,2.40
2022-09-20T17:32:25.156Z,2.30
2022-09-20T17:34:51.892Z,2.40
2022-09-20T17:37:21.971Z,2.20
2022-09-20T17:39:48.762Z,2.17
2022-09-20T17:42:15.384Z,2.20
2022-09-20T17:44:42.084Z,2.00
2022-09-20T17:47:09.144Z,1.77
2022-09-20T17:49:40.699Z,2.00
2022-09-20T17:52:08.362Z,2.00
2022-09-20T17:54:34.944Z,2.00
2022-09-20T17:57:01.565Z,1.70
2022-09-20T17:59:36.611Z,1.57
2022-09-20T18:02:03.429Z,1.70
2022-09-20T18:04:30.030Z,2.03
2022-09-20T18:07:06.844Z,2.10
2022-09-20T18:09:33.486Z,1.70
2022-09-20T18:12:00.138Z,1.90
2022-09-20T18:14:31.386Z,1.73
2022-09-20T18:17:01.165Z,1.70
2022-09-20T18:19:34.030Z,1.77
2022-09-20T18:22:01.705Z,2.20
2022-09-20T18:24:28.279Z,1.67
2022-09-20T18:26:54.881Z,1.90
2022-09-20T18:29:21.493Z,1.67
2022-09-20T18:31:54.289Z,1.87
2022-09-20T18:34:22.925Z,1.80
2022-09-20T18:36:57.173Z,1.80
2022-09-20T18:39:25.516Z,1.57
2022-09-20T18:41:53.298Z,1.83
2022-09-20T18:44:20.561Z,1.80
2022-09-20T18:46:47.250Z,1.70
2022-09-20T18:49:15.048Z,1.40
2022-09-20T18:51:42.759Z,2.13
2022-09-20T18:54:10.590Z,1.87
2022-09-20T18:56:42.174Z,1.80
2022-09-20T18:59:22.810Z,1.60
2022-09-20T19:01:49.536Z,1.80
2022-09-20T19:04:34.433Z,1.80
2022-09-20T19:07:38.928Z,1.73
2022-09-20T19:10:05.463Z,1.70
2022-09-20T19:12:53.246Z,1.67
2022-09-20T19:15:53.073Z,1.60
2022-09-20T19:18:44.538Z,1.67
2022-09-20T19:21:26.408Z,1.87
2022-09-20T19:24:11.323Z,1.50
2022-09-20T19:26:38.741Z,1.63
2022-09-20T19:29:25.265Z,1.50
2022-09-20T19:31:57.531Z,1.80
2022-09-20T19:34:29.535Z,1.73
2022-09-20T19:37:18.723Z,1.97
2022-09-20T19:39:45.376Z,1.90
2022-09-20T19:42:31.971Z,2.00
2022-09-20T19:45:17.991Z,1.63
2022-09-20T19:47:47.196Z,2.10
2022-09-20T19:50:28.026Z,1.87
2022-09-20T19:52:57.928Z,1.90
2022-09-20T19:55:25.076Z,1.80
2022-09-20T19:57:52.000Z,1.80
2022-09-20T20:00:20.771Z,1.83
2022-09-20T20:02:47.856Z,1.80
2022-09-20T20:05:17.155Z,1.70
2022-09-20T20:07:55.284Z,1.70
2022-09-20T20:10:33.494Z,1.93
2022-09-20T20:13:29.847Z,1.80
2022-09-20T20:16:13.701Z,1.60
2022-09-20T20:19:02.662Z,1.90
2022-09-20T20:21:42.403Z,1.87
2022-09-20T20:24:28.769Z,1.90
2022-09-20T20:26:55.373Z,1.70
2022-09-20T20:29:22.113Z,1.70
2022-09-20T20:31:48.663Z,2.37
2022-09-20T20:34:18.725Z,2.03
2022-09-20T20:36:45.390Z,2.30
2022-09-20T20:39:12.166Z,2.03
2022-09-20T20:41:39.419Z,2.10
2022-09-20T20:44:06.330Z,2.10
2022-09-20T20:46:36.156Z,1.90
2022-09-20T20:49:03.663Z,2.50
2022-09-20T20:51:33.091Z,2.20
2022-09-20T20:53:59.886Z,2.20
2022-09-20T20:56:29.955Z,2.10
2022-09-20T20:59:00.787Z,2.60
2022-09-20T21:01:32.133Z,2.07
2022-09-20T21:03:59.533Z,2.47
2022-09-20T21:06:31.910Z,2.30
2022-09-20T21:08:58.698Z,2.33
2022-09-20T21:11:33.813Z,2.70
2022-09-20T21:14:01.685Z,3.30
2022-09-20T21:16:30.605Z,2.70
2022-09-20T21:18:57.840Z,2.40
2022-09-20T21:21:30.183Z,2.80
2022-09-20T21:24:03.225Z,2.87
2022-09-20T21:26:32.022Z,3.13
2022-09-20T21:29:00.374Z,3.33
2022-09-20T21:31:31.748Z,2.83
2022-09-20T21:33:58.922Z,2.70
2022-09-20T21:36:30.264Z,2.67
2022-09-20T21:38:57.438Z,2.60
2022-09-20T21:41:32.145Z,2.70
2022-09-20T21:44:04.177Z,2.63
2022-09-20T21:46:34.951Z,2.97
2022-09-20T21:49:06.326Z,2.67
2022-09-20T21:51:33.400Z,2.67
2022-09-20T21:54:01.449Z,2.70
2022-09-20T21:56:36.244Z,2.77
2022-09-20T21:59:04.425Z,2.50
2022-09-20T22:01:36.676Z,2.93
2022-09-20T22:04:11.095Z,2.73
2022-09-20T22:06:40.267Z,2.90
2022-09-20T22:09:09.199Z,2.80
2022-09-20T22:11:44.615Z,3.27
2022-09-20T22:14:12.963Z,2.87
2022-09-20T22:16:41.798Z,2.90
2022-09-20T22:19:10.250Z,2.70
2022-09-20T22:21:39.153Z,2.70
2022-09-20T22:24:10.660Z,3.20
2022-09-20T22:26:44.305Z,3.20
2022-09-20T22:29:10.927Z,2.50
2022-09-20T22:31:44.694Z,3.20
2022-09-20T22:34:14.253Z,3.27
2022-09-20T22:36:41.473Z,3.73
2022-09-20T22:39:09.827Z,3.97
2022-09-20T22:41:37.481Z,3.27
2022-09-20T22:44:04.648Z,3.47
2022-09-20T22:46:32.673Z,3.60
2022-09-20T22:48:59.498Z,3.87
2022-09-20T22:51:31.404Z,3.67
2022-09-20T22:53:58.022Z,3.50
2022-09-20T22:56:29.266Z,4.33
2022-09-20T22:59:03.501Z,4.27
2022-09-20T23:01:43.441Z,4.70
2022-09-20T23:04:12.753Z,4.40
2022-09-20T23:06:41.414Z,4.73
2022-09-20T23:09:10.047Z,4.50
2022-09-20T23:11:37.649Z,4.20
2022-09-20T23:14:05.895Z,4.77
2022-09-20T23:16:34.740Z,4.20
2022-09-20T23:19:02.290Z,3.80
2022-09-20T23:21:29.321Z,3.93
2022-09-20T23:23:58.282Z,4.13
2022-09-20T23:26:25.673Z,4.20
2022-09-20T23:28:57.168Z,3.50
2022-09-20T23:31:24.431Z,3.70
2022-09-20T23:33:58.658Z,3.87
2022-09-20T23:36:27.179Z,3.97
2022-09-20T23:38:54.355Z,3.90
2022-09-20T23:41:22.862Z,3.97
2022-09-20T23:43:49.621Z,4.10
2022-09-20T23:46:19.095Z,4.17
2022-09-20T23:48:50.228Z,4.30
2022-09-20T23:51:18.963Z,4.40
2022-09-20T23:53:45.589Z,3.90
2022-09-20T23:56:16.062Z,4.37
2022-09-20T23:58:44.013Z,3.97
